Time;durP1;ratioP1;P1;durP2;ratioP2;P2;SDS_P1;SDS_P2;PMS_P1;PMS_P2;Temp;Humidity;BMP_temperature;BMP_pressure;BME280_temperature;BME280_humidity;BME280_pressure;Samples;Min_cycle;Max_cycle;Signal;HPM_P1;HPM_P2
2021/07/16 00:00:14;;;;;;;18.75;17.25;;;;;;;20.91;62.33;93263.63;5111458;28;20427;-62
2021/07/16 00:02:41;;;;;;;19.98;18.33;;;;;;;20.91;62.41;93263.63;5111154;28;20530;-63
2021/07/16 00:05:07;;;;;;;21.67;19.65;;;;;;;20.98;62.18;93276.63;5111367;28;20568;-61
2021/07/16 00:07:33;;;;;;;21.70;19.67;;;;;;;20.78;62.46;93272.75;5111018;28;20034;-61
2021/07/16 00:09:58;;;;;;;19.30;17.42;;;;;;;20.85;62.37;93277.34;5110921;28;20058;-60
2021/07/16 00:12:24;;;;;;;19.40;17.67;;;;;;;20.61;63.20;93276.03;5111024;28;20027;-59
2021/07/16 00:14:49;;;;;;;19.23;17.67;;;;;;;20.57;63.22;93275.09;5110867;28;20038;-59
2021/07/16 00:17:15;;;;;;;20.05;18.25;;;;;;;20.65;63.03;93267.09;5111104;28;20116;-59
2021/07/16 00:19:40;;;;;;;19.90;18.38;;;;;;;20.77;62.61;93267.75;5111091;28;20072;-59
2021/07/16 00:22:06;;;;;;;19.65;17.95;;;;;;;20.78;62.70;93260.78;5111031;28;20027;-59
2021/07/16 00:24:31;;;;;;;19.35;17.75;;;;;;;20.83;63.31;93259.66;5104613;28;20051;-60
2021/07/16 00:26:56;;;;;;;19.08;17.15;;;;;;;20.77;62.94;93250.94;5090537;28;20504;-63
2021/07/16 00:29:24;;;;;;;18.10;16.45;;;;;;;20.70;62.98;93243.53;5090601;28;20409;-60
2021/07/16 00:31:50;;;;;;;19.15;17.35;;;;;;;20.70;63.14;93230.25;5089997;28;20482;-61
2021/07/16 00:34:15;;;;;;;17.98;16.35;;;;;;;20.58;63.20;93232.38;5090434;28;20027;-59
2021/07/16 00:36:41;;;;;;;17.33;15.93;;;;;;;20.52;63.56;93232.06;5090330;28;20145;-59
2021/07/16 00:39:06;;;;;;;18.52;16.48;;;;;;;20.60;63.25;93229.69;5090424;28;20105;-59
2021/07/16 00:41:32;;;;;;;17.48;15.82;;;;;;;20.66;63.06;93234.91;5090456;28;20512;-59
2021/07/16 00:43:57;;;;;;;18.17;16.35;;;;;;;20.63;63.34;93236.13;5090327;28;20024;-59
2021/07/16 00:46:22;;;;;;;16.50;15.07;;;;;;;20.63;62.91;93230.53;5090426;28;20024;-60
2021/07/16 00:48:48;;;;;;;18.08;16.75;;;;;;;20.40;64.14;93228.59;5089986;28;20553;-59
2021/07/16 00:51:13;;;;;;;17.85;16.30;;;;;;;20.55;63.29;93228.03;5090318;28;20032;-59
2021/07/16 00:53:39;;;;;;;17.88;16.27;;;;;;;20.49;63.23;93224.88;5090229;28;20504;-60
2021/07/16 00:56:05;;;;;;;18.02;16.33;;;;;;;20.41;63.73;93230.06;5090063;28;20024;-60
2021/07/16 00:58:30;;;;;;;18.30;16.42;;;;;;;20.42;63.33;93239.22;5068282;28;20048;-60
2021/07/16 01:00:56;;;;;;;17.63;16.05;;;;;;;20.44;62.88;93233.69;5068360;28;20513;-59
2021/07/16 01:03:22;;;;;;;18.15;16.65;;;;;;;20.28;63.86;93239.88;5069797;28;20024;-59
2021/07/16 01:05:47;;;;;;;17.48;15.93;;;;;;;20.29;64.04;93240.63;5069507;28;20569;-59
2021/07/16 01:08:13;;;;;;;17.55;16.15;;;;;;;20.27;63.84;93237.72;5069458;28;20025;-61
2021/07/16 01:10:38;;;;;;;18.02;16.58;;;;;;;20.27;63.37;93246.84;5069720;28;20020;-60
2021/07/16 01:13:07;;;;;;;16.27;15.00;;;;;;;20.09;64.08;93247.88;5069521;28;20064;-60
2021/07/16 01:15:33;;;;;;;;;;;;;;;20.09;63.92;93247.88;5068909;28;20029;-61
2021/07/16 01:17:59;;;;;;;15.43;14.23;;;;;;;20.06;64.19;93240.69;5058542;28;19913;-61
2021/07/16 01:20:28;;;;;;;16.40;15.02;;;;;;;20.05;64.31;93233.66;5051802;28;20999;-60
2021/07/16 01:22:55;;;;;;;17.35;15.75;;;;;;;20.05;64.39;93228.03;5069498;28;20028;-59
2021/07/16 01:25:22;;;;;;;17.02;15.30;;;;;;;19.91;64.78;93219.56;5068963;28;20032;-60
2021/07/16 01:27:50;;;;;;;17.15;15.63;;;;;;;19.95;65.16;93221.84;5069508;28;20020;-60
2021/07/16 01:30:18;;;;;;;17.08;15.38;;;;;;;19.84;64.87;93203.75;5069579;28;20028;-59
2021/07/16 01:32:44;;;;;;;15.70;14.40;;;;;;;19.83;65.26;93201.56;5069312;28;20744;-60
2021/07/16 01:35:11;;;;;;;17.27;15.65;;;;;;;19.72;65.13;93180.69;5069552;28;20028;-61
2021/07/16 01:37:36;;;;;;;16.05;14.55;;;;;;;19.85;65.07;93205.22;5069174;28;20515;-60
2021/07/16 01:40:08;;;;;;;16.70;15.23;;;;;;;19.92;65.08;93209.09;5067975;28;20036;-62
2021/07/16 01:42:38;;;;;;;17.65;16.15;;;;;;;19.92;65.35;93200.69;5069203;28;20481;-60
2021/07/16 01:45:09;;;;;;;16.52;15.15;;;;;;;19.86;65.65;93201.06;5069188;28;20036;-60
2021/07/16 01:47:35;;;;;;;15.95;14.25;;;;;;;19.72;65.03;93203.09;5068427;28;20031;-59
2021/07/16 01:50:05;;;;;;;16.05;14.70;;;;;;;19.67;65.10;93195.78;5069080;28;20040;-58
2021/07/16 01:52:31;;;;;;;16.05;14.55;;;;;;;19.53;65.12;93197.81;5069315;28;20033;-61
2021/07/16 01:54:57;;;;;;;16.23;14.85;;;;;;;19.55;65.04;93207.06;5068145;28;20060;-59
2021/07/16 01:57:22;;;;;;;16.05;14.52;;;;;;;19.42;65.28;93204.91;5072163;28;20121;-59
2021/07/16 01:59:48;;;;;;;16.60;15.10;;;;;;;19.53;65.07;93212.50;5089167;28;20478;-59
2021/07/16 02:02:15;;;;;;;15.73;14.52;;;;;;;19.49;64.58;93209.50;5071421;28;20031;-60
2021/07/16 02:04:41;;;;;;;15.70;14.35;;;;;;;19.41;64.58;93211.84;5089066;28;20519;-59
2021/07/16 02:07:06;;;;;;;16.55;15.02;;;;;;;19.21;65.44;93210.63;5089098;28;20024;-59
2021/07/16 02:09:32;;;;;;;15.10;13.68;;;;;;;19.27;65.58;93210.25;5089087;28;20031;-59
2021/07/16 02:11:58;;;;;;;16.52;15.20;;;;;;;19.13;66.44;93210.16;5089234;28;20027;-57
2021/07/16 02:14:25;;;;;;;15.38;14.15;;;;;;;19.08;66.24;93214.06;5089342;28;20019;-57
2021/07/16 02:16:51;;;;;;;16.50;15.20;;;;;;;19.08;66.27;93216.84;5086943;28;20020;-59
2021/07/16 02:19:16;;;;;;;16.77;14.30;;;;;;;19.24;65.80;93214.28;5070010;28;20050;-59
2021/07/16 02:21:41;;;;;;;15.63;14.02;;;;;;;19.22;65.99;93216.97;5072389;28;20493;-60
2021/07/16 02:24:07;;;;;;;18.20;14.82;;;;;;;19.17;65.92;93223.66;5074492;28;20032;-61
2021/07/16 02:26:33;;;;;;;16.65;15.23;;;;;;;19.20;66.37;93219.63;5092969;28;20077;-59
2021/07/16 02:28:58;;;;;;;15.05;13.75;;;;;;;19.16;66.35;93222.22;5092890;28;20051;-58
2021/07/16 02:31:23;;;;;;;14.15;12.88;;;;;;;19.09;66.16;93221.13;5092938;28;20043;-59
2021/07/16 02:33:49;;;;;;;13.35;12.35;;;;;;;19.08;65.43;93222.44;5092568;28;20032;-58
2021/07/16 02:36:17;;;;;;;15.32;13.43;;;;;;;19.01;65.59;93211.53;5092511;28;20024;-59
2021/07/16 02:38:43;;;;;;;13.98;12.90;;;;;;;19.07;65.98;93226.59;5092813;28;20412;-58
2021/07/16 02:41:08;;;;;;;14.68;13.27;;;;;;;19.02;65.73;93224.91;5092423;28;20032;-60
2021/07/16 02:43:36;;;;;;;14.95;13.65;;;;;;;19.04;65.77;93213.81;5092486;28;20031;-60
2021/07/16 02:46:01;;;;;;;16.77;15.05;;;;;;;18.98;66.01;93213.47;5092506;28;20161;-61
2021/07/16 02:48:27;;;;;;;19.38;17.20;;;;;;;18.98;66.43;93204.34;5092840;28;20099;-60
2021/07/16 02:50:53;;;;;;;18.52;16.85;;;;;;;18.97;66.25;93206.44;5092662;28;20024;-64
2021/07/16 02:53:21;;;;;;;19.40;17.58;;;;;;;18.97;66.71;93200.84;5092330;28;20077;-66
2021/07/16 02:55:47;;;;;;;18.17;16.43;;;;;;;18.84;67.01;93209.84;5092209;28;20028;-65
2021/07/16 02:58:13;;;;;;;20.15;17.52;;;;;;;18.66;67.64;93217.88;5091964;28;20454;-65
2021/07/16 03:00:39;;;;;;;18.30;16.42;;;;;;;18.71;67.26;93216.75;5092171;28;20030;-64
2021/07/16 03:03:05;;;;;;;17.30;15.60;;;;;;;18.76;66.81;93226.84;5091829;28;20496;-64
2021/07/16 03:05:34;;;;;;;17.50;15.77;;;;;;;18.90;65.92;93226.97;5092216;28;20020;-64
2021/07/16 03:07:59;;;;;;;16.58;14.98;;;;;;;18.82;66.47;93226.47;5092182;28;20099;-64
2021/07/16 03:10:44;;;;;;;13.02;11.88;;;;;;;18.72;65.29;93221.03;5092162;28;20479;-64
2021/07/16 03:13:12;;;;;;;13.25;12.15;;;;;;;18.62;65.88;93220.44;5091626;28;20152;-64
2021/07/16 03:15:38;;;;;;;22.02;13.38;;;;;;;18.59;66.38;93212.50;5091971;28;20542;-63
2021/07/16 03:18:05;;;;;;;15.27;13.88;;;;;;;18.54;66.63;93211.53;5079870;28;20107;-64
2021/07/16 03:20:32;;;;;;;16.00;13.48;;;;;;;18.50;66.43;93216.13;5071630;28;20036;-64
2021/07/16 03:22:58;;;;;;;14.65;13.32;;;;;;;18.39;66.88;93219.63;5071612;28;20038;-63
2021/07/16 03:25:24;;;;;;;15.07;13.80;;;;;;;18.54;66.54;93219.91;5084474;28;20389;-64
2021/07/16 03:27:50;;;;;;;14.88;13.55;;;;;;;18.56;66.31;93217.25;5091439;28;20419;-64
2021/07/16 03:30:19;;;;;;;20.60;13.23;;;;;;;18.41;66.82;93214.88;5103206;28;20557;-63
2021/07/16 03:32:44;;;;;;;16.48;14.05;;;;;;;18.39;67.13;93203.59;5085575;28;20028;-64
2021/07/16 03:35:11;;;;;;;18.45;16.63;;;;;;;18.50;66.99;93216.13;5100974;28;20032;-63
2021/07/16 03:37:37;;;;;;;19.02;17.20;;;;;;;18.55;66.60;93213.00;5089671;28;20563;-63
2021/07/16 03:40:04;;;;;;;17.58;15.90;;;;;;;18.53;66.96;93210.09;5089894;28;20127;-58
2021/07/16 03:42:29;;;;;;;18.83;14.90;;;;;;;18.53;67.71;93206.56;5089680;28;20032;-59
2021/07/16 03:44:55;;;;;;;16.20;14.82;;;;;;;18.45;67.75;93211.66;5089882;28;20724;-61
2021/07/16 03:47:20;;;;;;;15.75;14.18;;;;;;;18.59;67.23;93206.91;5089623;28;20561;-65
2021/07/16 03:49:46;;;;;;;15.90;14.32;;;;;;;18.55;67.18;93207.41;5089730;28;20020;-60
2021/07/16 03:52:11;;;;;;;17.58;15.77;;;;;;;18.65;67.21;93199.63;5090524;28;20480;-60
2021/07/16 03:54:37;;;;;;;50.55;16.27;;;;;;;18.66;66.73;93212.28;5091319;28;20540;-60
2021/07/16 03:57:03;;;;;;;31.13;16.27;;;;;;;18.72;66.91;93217.50;5090752;28;20024;-60
2021/07/16 03:59:30;;;;;;;17.58;15.88;;;;;;;18.57;66.64;93206.78;5090585;28;20117;-60
2021/07/16 04:01:56;;;;;;;22.52;15.73;;;;;;;18.65;66.35;93213.59;5090812;28;20036;-59
2021/07/16 04:04:21;;;;;;;19.17;14.63;;;;;;;18.64;67.11;93225.41;5090734;28;20028;-64
2021/07/16 04:06:52;;;;;;;16.63;14.93;;;;;;;18.80;66.82;93220.75;5091098;28;20028;-64
2021/07/16 04:09:27;;;;;;;14.18;12.93;;;;;;;18.77;66.60;93224.78;5090902;28;20024;-60
2021/07/16 04:12:16;;;;;;;12.70;11.80;;;;;;;18.72;66.57;93225.88;5090603;28;20527;-59
2021/07/16 04:14:50;;;;;;;13.18;12.13;;;;;;;18.60;67.30;93230.75;5091015;28;20024;-60
2021/07/16 04:17:26;;;;;;;15.18;13.80;;;;;;;18.66;67.97;93231.84;5085534;28;20047;-60
2021/07/16 04:19:52;;;;;;;15.23;14.02;;;;;;;18.77;67.94;93228.34;5070638;28;20046;-60
2021/07/16 04:22:19;;;;;;;14.82;13.63;;;;;;;18.84;67.88;93224.53;5070442;28;20047;-60
2021/07/16 04:24:45;;;;;;;15.23;13.88;;;;;;;18.83;68.18;93219.56;5070167;28;20081;-60
2021/07/16 04:27:12;;;;;;;13.95;12.82;;;;;;;19.03;68.02;93220.78;5070371;28;20109;-60
2021/07/16 04:29:38;;;;;;;15.02;13.52;;;;;;;19.06;67.30;93218.81;5070084;28;20521;-60
2021/07/16 04:32:05;;;;;;;17.63;15.35;;;;;;;19.03;67.57;93223.56;5070172;28;20485;-59
2021/07/16 04:34:33;;;;;;;17.98;14.95;;;;;;;19.09;67.39;93223.91;5070277;28;20031;-59
2021/07/16 04:36:59;;;;;;;19.60;15.80;;;;;;;19.05;67.19;93220.88;5070395;28;20077;-58
2021/07/16 04:39:25;;;;;;;17.17;15.20;;;;;;;19.03;67.48;93220.78;5070090;28;20024;-59
2021/07/16 04:41:51;;;;;;;18.95;15.38;;;;;;;19.06;67.04;93202.03;5069191;28;20028;-59
2021/07/16 04:44:16;;;;;;;15.75;14.32;;;;;;;19.15;66.60;93218.66;5070151;28;20085;-53
2021/07/16 04:46:42;;;;;;;15.73;14.20;;;;;;;19.11;66.78;93212.84;5069746;28;20020;-53
2021/07/16 04:49:07;;;;;;;15.32;13.93;;;;;;;19.22;66.19;93211.38;5070126;28;20021;-54
2021/07/16 04:51:34;;;;;;;26.92;24.42;;;;;;;19.26;66.67;93211.59;5069755;28;20027;-61
2021/07/16 04:54:01;;;;;;;32.45;18.27;;;;;;;19.23;67.68;93210.75;5069620;28;20024;-60
2021/07/16 04:56:27;;;;;;;33.00;28.77;;;;;;;19.29;67.98;93208.31;5069568;28;20120;-60
2021/07/16 04:58:52;;;;;;;25.40;20.30;;;;;;;19.36;65.86;93203.81;5069452;28;20084;-61
2021/07/16 05:01:21;;;;;;;19.58;17.63;;;;;;;19.36;66.73;93210.13;5069873;28;20051;-61
2021/07/16 05:03:47;;;;;;;20.48;17.55;;;;;;;19.38;67.87;93204.66;5069833;28;20021;-59
2021/07/16 05:06:12;;;;;;;24.27;16.52;;;;;;;19.48;66.15;93199.66;5078633;28;20508;-61
2021/07/16 05:08:41;;;;;;;18.60;16.38;;;;;;;19.56;66.90;93202.91;5089692;28;20020;-61
2021/07/16 05:11:07;;;;;;;28.88;17.55;;;;;;;19.66;67.58;93194.34;5088213;28;20024;-60
2021/07/16 05:13:37;;;;;;;18.65;16.08;;;;;;;19.67;67.28;93202.13;5069748;28;20024;-60
2021/07/16 05:16:03;;;;;;;22.40;15.27;;;;;;;19.77;66.78;93199.19;5069605;28;20032;-59
2021/07/16 05:18:29;;;;;;;20.70;16.73;;;;;;;19.83;67.03;93202.31;5085096;28;20023;-60
2021/07/16 05:20:55;;;;;;;19.65;17.55;;;;;;;19.90;66.50;93195.72;5089904;28;20099;-59
2021/07/16 05:23:21;;;;;;;22.35;18.58;;;;;;;20.06;67.57;93190.97;5089467;28;20016;-59
2021/07/16 05:25:46;;;;;;;24.48;19.80;;;;;;;20.09;67.06;93197.44;5073214;28;20017;-59
2021/07/16 05:28:12;;;;;;;22.92;19.75;;;;;;;20.18;66.98;93200.03;5069515;28;20024;-60
2021/07/16 05:30:37;;;;;;;21.67;19.02;;;;;;;20.31;66.54;93190.25;5069535;28;20028;-60
2021/07/16 05:33:02;;;;;;;21.90;18.20;;;;;;;20.34;66.51;93191.81;5051186;28;20024;-60
2021/07/16 05:35:29;;;;;;;21.63;18.38;;;;;;;20.41;66.40;93190.78;5069274;28;20024;-60
2021/07/16 05:37:54;;;;;;;22.35;16.92;;;;;;;20.53;66.20;93183.00;5069121;28;20024;-60
2021/07/16 05:40:20;;;;;;;26.27;15.98;;;;;;;20.57;65.93;93186.06;5069135;28;20025;-60
2021/07/16 05:42:45;;;;;;;21.13;14.90;;;;;;;20.68;66.28;93188.03;5069487;28;20054;-60
2021/07/16 05:45:11;;;;;;;19.80;13.63;;;;;;;20.78;66.16;93196.25;5069092;28;20489;-60
2021/07/16 05:47:36;;;;;;;29.48;12.15;;;;;;;20.85;65.75;93190.34;5088210;28;20019;-60
2021/07/16 05:50:02;;;;;;;13.40;12.10;;;;;;;20.87;66.45;93186.91;5089558;28;20467;-60
2021/07/16 05:52:28;;;;;;;13.23;11.77;;;;;;;21.01;65.63;93191.16;5089609;28;20675;-60
2021/07/16 05:54:54;;;;;;;12.52;11.25;;;;;;;21.08;64.94;93192.97;5092892;28;20038;-60
2021/07/16 05:57:20;;;;;;;17.58;11.88;;;;;;;21.21;63.45;93182.34;5093283;28;20048;-58
2021/07/16 05:59:46;;;;;;;12.57;11.35;;;;;;;21.30;63.45;93189.81;5093560;28;20056;-59
2021/07/16 06:02:11;;;;;;;37.28;12.73;;;;;;;21.40;62.64;93191.06;5086217;28;20485;-59
2021/07/16 06:04:36;;;;;;;28.35;11.70;;;;;;;21.45;63.44;93194.78;5073225;28;20027;-60
2021/07/16 06:07:03;;;;;;;14.73;10.60;;;;;;;21.50;61.79;93190.84;5072724;28;20031;-65
2021/07/16 06:09:28;;;;;;;17.70;10.55;;;;;;;21.62;62.06;93183.00;5091707;28;20097;-60
2021/07/16 06:11:54;;;;;;;9.82;8.93;;;;;;;21.61;61.50;93179.44;5093273;28;20480;-62
2021/07/16 06:14:19;;;;;;;10.45;9.50;;;;;;;21.78;62.20;93180.97;5092947;28;20389;-60
2021/07/16 06:16:49;;;;;;;372.10;33.67;;;;;;;21.88;61.71;93184.31;5091729;28;20024;-61
2021/07/16 06:19:15;;;;;;;20.75;10.55;;;;;;;21.98;60.84;93182.00;5072973;28;20063;-60
2021/07/16 06:21:41;;;;;;;11.60;9.02;;;;;;;22.07;61.13;93180.28;5079480;28;20096;-63
2021/07/16 06:24:06;;;;;;;21.80;8.63;;;;;;;22.20;59.60;93180.22;5097188;28;20023;-61
2021/07/16 06:26:31;;;;;;;11.32;8.43;;;;;;;22.30;59.38;93177.88;5093122;28;20686;-61
2021/07/16 06:28:57;;;;;;;9.93;8.25;;;;;;;22.38;61.09;93172.63;5093124;28;20393;-61
2021/07/16 06:31:22;;;;;;;16.10;7.80;;;;;;;22.59;54.35;93168.66;5093118;28;20032;-60
2021/07/16 06:33:48;;;;;;;10.57;6.43;;;;;;;22.47;56.95;93168.81;5093045;28;20031;-60
2021/07/16 06:36:13;;;;;;;7.35;6.65;;;;;;;22.56;55.84;93159.38;5092623;28;20031;-63
2021/07/16 06:38:39;;;;;;;8.85;6.25;;;;;;;22.70;54.69;93164.94;5092782;28;20087;-62
2021/07/16 06:41:04;;;;;;;8.57;7.40;;;;;;;22.87;52.13;93155.13;5093196;28;20031;-65
2021/07/16 06:43:30;;;;;;;12.02;10.93;;;;;;;22.86;51.95;93167.75;5092524;28;20020;-60
2021/07/16 06:45:55;;;;;;;7.40;6.70;;;;;;;22.98;52.45;93157.00;5092535;28;20028;-60
2021/07/16 06:48:21;;;;;;;17.42;15.93;;;;;;;23.21;50.83;93159.44;5091879;28;20016;-59
2021/07/16 06:50:46;;;;;;;7.13;6.47;;;;;;;23.21;49.99;93162.25;5090537;28;20484;-61
2021/07/16 06:53:12;;;;;;;9.52;6.15;;;;;;;23.34;48.39;93152.97;5090288;28;20024;-61
2021/07/16 06:55:37;;;;;;;13.10;6.13;;;;;;;23.34;48.76;93152.97;5090365;28;20024;-67
2021/07/16 06:58:03;;;;;;;13.25;6.63;;;;;;;23.36;49.13;93133.34;5089936;28;20556;-66
2021/07/16 07:00:31;;;;;;;10.18;6.65;;;;;;;23.54;48.65;93150.97;5089990;28;20416;-66
2021/07/16 07:02:56;;;;;;;10.38;6.30;;;;;;;23.56;47.79;93144.72;5090651;28;20042;-64
2021/07/16 07:05:25;;;;;;;20.65;6.90;;;;;;;23.65;49.62;93152.84;5090790;28;20526;-62
2021/07/16 07:07:51;;;;;;;8.05;6.75;;;;;;;23.69;48.00;93147.38;5091178;28;20024;-62
2021/07/16 07:10:16;;;;;;;36.03;8.13;;;;;;;23.72;48.92;93146.09;5090902;28;20465;-65
2021/07/16 07:12:44;;;;;;;10.82;7.07;;;;;;;23.80;49.47;93145.72;5090755;28;20027;-67
2021/07/16 07:15:10;;;;;;;20.83;7.32;;;;;;;23.99;48.03;93140.16;5090793;28;20028;-67
2021/07/16 07:17:36;;;;;;;10.10;6.30;;;;;;;24.08;49.94;93133.47;5090760;28;20028;-63
2021/07/16 07:20:01;;;;;;;10.05;6.20;;;;;;;24.31;49.59;93140.69;5090774;28;20027;-62
2021/07/16 07:22:27;;;;;;;10.18;5.78;;;;;;;24.40;48.07;93114.25;5082346;28;20726;-63
2021/07/16 07:24:52;;;;;;;7.07;5.90;;;;;;;24.60;46.49;93134.03;5087119;28;20032;-65
2021/07/16 07:27:18;;;;;;;13.95;7.10;;;;;;;24.68;46.34;93131.50;5089294;28;20012;-63
2021/07/16 07:29:43;;;;;;;16.13;6.05;;;;;;;24.65;48.67;93127.88;5090111;28;20026;-63
2021/07/16 07:32:09;;;;;;;10.85;5.40;;;;;;;24.95;44.79;93131.09;5090090;28;20082;-63
2021/07/16 07:34:34;;;;;;;7.13;5.72;;;;;;;25.06;46.34;93126.56;5090466;28;20074;-62
2021/07/16 07:37:00;;;;;;;8.45;5.72;;;;;;;25.24;45.32;93127.91;5090237;28;20416;-63
2021/07/16 07:39:25;;;;;;;8.65;5.45;;;;;;;25.42;45.81;93122.91;5090378;28;20031;-63
2021/07/16 07:41:50;;;;;;;6.30;5.55;;;;;;;25.70;44.14;93131.59;5089891;28;20016;-61
2021/07/16 07:44:17;;;;;;;11.63;5.47;;;;;;;25.94;43.48;93126.00;5090063;28;20027;-62
2021/07/16 07:46:44;;;;;;;5.93;5.28;;;;;;;26.24;45.09;93130.53;5071803;28;20020;-63
2021/07/16 07:49:13;;;;;;;11.98;5.07;;;;;;;26.65;42.42;93137.41;5089823;28;20023;-64
2021/07/16 07:51:38;;;;;;;;;;;;;;;26.98;42.11;93132.03;5090788;28;20405;-65
2021/07/16 07:54:04;;;;;;;7.97;4.80;;;;;;;27.51;40.40;93133.47;5090749;28;19908;-63
2021/07/16 07:56:30;;;;;;;6.78;4.78;;;;;;;27.83;39.68;93128.63;5091258;28;20039;-63
2021/07/16 07:58:56;;;;;;;12.63;5.10;;;;;;;28.15;39.21;93128.72;5090741;28;20082;-64
2021/07/16 08:01:21;;;;;;;6.72;4.38;;;;;;;28.56;39.52;93130.38;5090702;28;20024;-62
2021/07/16 08:03:47;;;;;;;7.68;5.18;;;;;;;28.42;40.17;93116.56;5090872;28;20032;-63
2021/07/16 08:06:12;;;;;;;6.00;4.55;;;;;;;28.78;39.13;93130.91;5090933;28;20027;-62
2021/07/16 08:08:38;;;;;;;10.73;5.40;;;;;;;28.90;39.00;93126.19;5090822;28;20149;-64
2021/07/16 08:11:03;;;;;;;8.05;4.13;;;;;;;29.34;36.71;93128.50;5090960;28;20028;-63
2021/07/16 08:13:29;;;;;;;7.95;4.80;;;;;;;29.52;36.41;93123.16;5090935;28;20051;-62
2021/07/16 08:15:55;;;;;;;11.80;5.03;;;;;;;29.53;39.10;93122.47;5090823;28;20455;-64
2021/07/16 08:18:21;;;;;;;14.45;4.88;;;;;;;30.01;37.66;93121.88;5089802;28;20401;-64
2021/07/16 08:20:47;;;;;;;10.10;3.85;;;;;;;30.14;35.74;93126.38;5090467;28;20016;-62
2021/07/16 08:23:12;;;;;;;8.02;3.75;;;;;;;30.02;35.55;93126.88;5090400;28;20055;-67
2021/07/16 08:25:38;;;;;;;10.55;4.15;;;;;;;30.06;37.15;93121.25;5090120;28;20047;-65
2021/07/16 08:28:03;;;;;;;33.63;21.98;;;;;;;29.80;35.13;93118.00;5090716;28;20018;-67
2021/07/16 08:30:29;;;;;;;5.78;4.35;;;;;;;29.34;37.31;93117.84;5090789;28;20490;-65
2021/07/16 08:32:55;;;;;;;13.00;6.75;;;;;;;29.27;36.40;93110.59;5090584;28;20020;-65
2021/07/16 08:35:20;;;;;;;4.53;4.07;;;;;;;29.00;38.17;93109.31;5090616;28;20409;-67
2021/07/16 08:37:46;;;;;;;9.35;5.03;;;;;;;29.12;37.49;93109.56;5090494;28;20035;-65
2021/07/16 08:40:12;;;;;;;8.23;5.47;;;;;;;28.92;38.31;93112.00;5090318;28;20490;-66
2021/07/16 08:42:37;;;;;;;9.18;4.60;;;;;;;29.24;36.80;93117.63;5090535;28;20073;-67
2021/07/16 08:45:08;;;;;;;8.55;4.43;;;;;;;29.33;36.56;93110.69;5090477;28;20472;-66
2021/07/16 08:47:34;;;;;;;6.05;4.28;;;;;;;29.32;36.99;93088.66;5090202;28;20024;-66
2021/07/16 08:50:02;;;;;;;10.10;4.47;;;;;;;29.12;38.41;93115.25;5090474;28;20024;-67
2021/07/16 08:52:29;;;;;;;7.23;4.20;;;;;;;29.22;37.28;93120.44;5090495;28;20097;-62
2021/07/16 08:54:55;;;;;;;6.25;4.05;;;;;;;29.36;37.58;93106.50;5090166;28;20028;-63
2021/07/16 08:57:24;;;;;;;5.25;4.10;;;;;;;29.21;36.73;93114.06;5090148;28;20017;-64
2021/07/16 08:59:49;;;;;;;;;;;;;;;29.04;36.03;93108.69;5091148;28;20482;-60
2021/07/16 09:02:15;;;;;;;6.40;4.33;;;;;;;29.39;38.14;93105.13;5089890;28;19912;-67
2021/07/16 09:04:42;;;;;;;5.05;3.72;;;;;;;29.83;36.00;93111.63;5090160;28;20809;-67
2021/07/16 09:07:08;;;;;;;6.22;3.53;;;;;;;30.19;35.64;93105.09;5089921;28;20027;-66
2021/07/16 09:09:38;;;;;;;10.48;4.38;;;;;;;30.40;36.22;93092.63;5090177;28;20027;-68
2021/07/16 09:12:08;;;;;;;7.75;4.47;;;;;;;30.59;34.90;93097.91;5089936;28;20505;-65
2021/07/16 09:14:33;;;;;;;6.30;4.75;;;;;;;30.84;33.59;93101.78;5090007;28;20028;-68
2021/07/16 09:17:05;;;;;;;11.77;4.35;;;;;;;30.85;34.62;93097.53;5086556;28;20017;-67
2021/07/16 09:19:37;;;;;;;5.50;4.07;;;;;;;30.68;33.56;93101.56;5069742;28;20036;-66
2021/07/16 09:22:19;;;;;;;7.47;4.25;;;;;;;31.08;33.62;93095.72;5069415;28;20032;-68
2021/07/16 09:24:56;;;;;;;9.05;4.20;;;;;;;30.81;33.02;93102.44;5076822;28;20076;-63
2021/07/16 09:27:41;;;;;;;6.28;4.65;;;;;;;30.82;34.98;93098.91;5089877;28;20475;-65
2021/07/16 09:30:27;;;;;;;8.00;4.53;;;;;;;30.94;33.41;93099.09;5089822;28;20054;-67
2021/07/16 09:32:57;;;;;;;8.02;5.03;;;;;;;31.35;33.15;93094.59;5089780;28;20035;-69
2021/07/16 09:35:38;;;;;;;9.68;4.00;;;;;;;31.25;32.22;93109.44;5089389;28;20055;-68
2021/07/16 09:38:05;;;;;;;9.98;4.18;;;;;;;31.23;32.96;93089.44;5089373;28;20032;-69
2021/07/16 09:40:39;;;;;;;12.60;4.38;;;;;;;31.25;32.48;93098.03;5089466;28;20115;-60
2021/07/16 09:43:10;;;;;;;8.88;5.13;;;;;;;31.59;31.88;93103.44;5089238;28;20099;-66
2021/07/16 09:45:39;;;;;;;5.68;4.70;;;;;;;32.35;33.68;93091.25;5089467;28;20046;-67
2021/07/16 09:48:17;;;;;;;7.03;4.38;;;;;;;32.42;30.86;93102.00;5089219;28;20020;-67
2021/07/16 09:50:42;;;;;;;6.13;4.68;;;;;;;32.41;30.41;93091.28;5084172;28;20557;-67
2021/07/16 09:53:29;;;;;;;8.02;4.32;;;;;;;32.53;32.03;93092.09;5069212;28;20029;-69
2021/07/16 09:56:35;;;;;;;7.85;4.25;;;;;;;32.89;29.17;93085.91;5087226;28;20048;-62
2021/07/16 09:59:13;;;;;;;5.45;4.55;;;;;;;33.00;30.53;93090.28;5025069;28;20090;-66
2021/07/16 10:01:40;;;;;;;12.07;5.40;;;;;;;33.04;29.14;93087.41;5029293;28;20034;-61
2021/07/16 10:04:18;;;;;;;6.80;3.97;;;;;;;32.78;30.46;93093.72;5060805;28;20069;-65
2021/07/16 10:06:47;;;;;;;9.25;4.60;;;;;;;33.10;29.94;93089.56;5082124;28;20052;-67
2021/07/16 10:09:12;;;;;;;13.95;4.43;;;;;;;33.54;28.38;93081.19;5085900;28;20032;-66
2021/07/16 10:11:39;;;;;;;7.85;3.92;;;;;;;33.84;29.15;93078.38;5068516;28;20544;-67
2021/07/16 10:14:04;;;;;;;8.88;4.10;;;;;;;33.58;28.71;93073.31;5067611;28;20032;-64
2021/07/16 10:16:30;;;;;;;8.32;4.15;;;;;;;34.09;29.46;93074.09;5067300;28;20047;-64
2021/07/16 10:18:56;;;;;;;8.10;4.57;;;;;;;33.80;29.35;93069.78;5085124;28;20081;-62
2021/07/16 10:21:22;;;;;;;15.50;4.55;;;;;;;34.16;29.66;93060.47;5084016;28;20063;-64
2021/07/16 10:23:49;;;;;;;5.03;3.95;;;;;;;34.48;27.26;93069.06;5087198;28;20031;-62
2021/07/16 10:26:15;;;;;;;13.93;4.30;;;;;;;34.72;28.89;93060.44;5074865;28;20390;-63
2021/07/16 10:28:42;;;;;;;5.15;3.90;;;;;;;34.87;27.05;93064.69;5070093;28;20028;-63
2021/07/16 10:33:56;;;;;;;6.10;3.80;;;;;;;35.22;25.84;93062.44;5087985;28;20444;-63
2021/07/16 10:36:37;;;;;;;7.80;3.95;;;;;;;34.97;27.78;93061.09;5085333;28;20020;-64
2021/07/16 10:39:04;;;;;;;4.65;4.03;;;;;;;35.16;26.25;93064.63;5085320;28;20191;-67
2021/07/16 10:41:31;;;;;;;10.73;4.32;;;;;;;35.38;26.26;93061.66;5090845;28;20412;-66
2021/07/16 10:43:56;;;;;;;7.13;4.15;;;;;;;36.08;26.32;93041.13;5091213;28;20046;-67
2021/07/16 10:46:34;;;;;;;9.00;4.18;;;;;;;35.19;25.76;93046.69;5091299;28;20020;-67
2021/07/16 10:49:00;;;;;;;4.68;3.85;;;;;;;35.46;25.61;93030.72;5091671;28;20024;-61
2021/07/16 10:51:28;;;;;;;8.43;4.70;;;;;;;34.93;25.73;93035.28;5091248;28;20032;-65
2021/07/16 10:53:55;;;;;;;6.73;4.83;;;;;;;34.76;25.96;93025.31;5091422;28;20031;-63
2021/07/16 10:56:38;;;;;;;6.22;4.38;;;;;;;35.12;28.01;93039.53;5091180;28;20381;-68
2021/07/16 10:59:03;;;;;;;7.13;4.88;;;;;;;36.04;25.12;93031.84;5088598;28;20036;-69
2021/07/16 11:01:35;;;;;;;8.77;4.80;;;;;;;35.86;24.37;93029.06;5090997;28;20496;-66
2021/07/16 11:04:01;;;;;;;9.20;4.88;;;;;;;35.83;26.44;93008.25;5086842;28;20469;-68
2021/07/16 11:06:47;;;;;;;16.63;4.85;;;;;;;36.68;26.32;93021.91;5091351;28;20024;-67
2021/07/16 11:09:31;;;;;;;6.75;4.13;;;;;;;36.45;22.94;93019.25;5090280;28;20031;-66
2021/07/16 11:12:18;;;;;;;5.82;4.20;;;;;;;36.31;25.70;93022.25;5090343;28;20035;-69
2021/07/16 11:14:44;;;;;;;5.63;4.57;;;;;;;36.17;25.42;93024.53;5088624;28;20501;-67
2021/07/16 11:17:10;;;;;;;7.05;4.60;;;;;;;35.53;25.04;93020.69;5090718;28;20028;-67
2021/07/16 11:19:36;;;;;;;4.80;4.30;;;;;;;34.93;25.58;93010.16;5090526;28;20038;-65
2021/07/16 11:22:04;;;;;;;8.98;4.80;;;;;;;34.95;26.04;93012.31;5088429;28;20103;-67
2021/07/16 11:24:32;;;;;;;6.93;4.75;;;;;;;35.31;26.52;93012.16;5090509;28;20020;-70
2021/07/16 11:27:08;;;;;;;7.15;4.28;;;;;;;35.50;25.30;93002.00;5090432;28;20028;-68